Loisir ou Compétition : Rejoignez un Club de la Fédération

Résultats

Course du Conseil Général HOMME le 30/01/2005

SUPER DEVOLUY

GS Hommes

Jury de Compétition

Délégué Technique :
PIERI MICHEL (AP)
Arbitre :
EYRAUD BERNARD (AP)
Assistant :
 
Dir. Epreuve :
SERRES MARC (AP)

Caractéristiques de la Piste

Piste :
LA JAS
Départ :
1750
Arrivée :
1500
Dénivelé :
250
Homologation :
1346/03/98

Manche 1

Nombre de Portes :
37
Heure de Départ :
10H45
Traceur :
BONDARNAUD THIERRY (AP)
Ouvreurs A :
CHACON YANNICK (AP)
Ouvreurs B :
PRAYER CLEMENT (AP)
Ouvreurs C :
ESTELLON YOANN (AP)
Ouvreurs D :
DAO LENA BENJAMIN (AP)
Ouvreurs E :
 
Temps :
Beau
Neige :
Dure

Manche 2

Nombre de Portes :
 
Heure de Départ :
 
Traceur :
 
Ouvreurs A :
CHPUT Kevin (SA)
Ouvreurs B :
RAFFORT Yoann (SA)
Ouvreurs C :
 
Ouvreurs D :
 
Ouvreurs E :
 
Température Départ :
- 8
Température Arrivée :
- 1

Pénalité Appliquée :
255.0000

Catégorie :
POU+BEN
Clt Dos Clt/Cat Code An Nom Prénom Com Club Tps M1 Tps Tot Pts
Classés
1 116 1/BEN FFS2289000 1992 PHILIP JULIEN AP SERRE CHEVAL 1:10.26 1:10.26 255.00
2 128 2/BEN FFS2256634 1992 ROCHE J BAPTISTE AP GAP MERLETTE 1:10.32 1:10.32 255.74
3 179 3/BEN FFS2349384 1992 GIRAUD MOINE VALENTIN AP EC CHAMPSAUR 1:10.45 1:10.45 257.35
4 113 4/BEN FFS2613035 1993 CHAMPIOT ROBIN AP SERRE CHEVAL 1:11.61 1:11.61 271.72
5 185 5/BEN ETR036806238 1992 LEBERMANN AUGUSTIN 1:13.58 1:13.58 296.11
6 146 6/BEN FFS2602904 1993 BARONNAT THEO AP EC CHAMPSAUR 1:13.60 1:13.60 296.36
7 149 7/BEN FFS2349502 1992 GIRAUD THOMAS AP ORC MERLETTE 1:13.67 1:13.67 297.22
8 151 8/BEN FFS2349084 1992 CHAUVET MICKAEL AP US ANCELLE 1:13.70 1:13.70 297.60
9 191 9/BEN FFS2349085 1992 PHILIPPE LAURENT AP US ANCELLE 1:13.95 1:13.95 300.69
10 127 10/BEN FFS2319151 1993 VERGNAUD NICOLAS AP SERRE CHEVAL 1:13.99 1:13.99 301.19
11 33 1/POU FFS2613810 1994 JOUVE RICHARD AP SC MONGENEVR 1:14.16 1:14.16 303.29
12 137 11/BEN FFS2349483 1992 ZEISSER CLEMENT AP EC CHAMPSAUR 1:14.30 1:14.30 305.03
13 26 2/POU FFS2319183 1994 GALDI THEO AP CS RISOUL 1:14.51 1:14.51 307.63
14 155 12/BEN FFS2289098 1992 THOUVENOT ANTOINE AP PUY ST VINCE 1:14.57 1:14.57 308.37
15 176 13/BEN FFS2289392 1992 BOUNOUS PIERRE AP SC ST LEGER 1:14.62 1:14.62 308.99
16 129 14/BEN FFS2289013 1992 PATRAS CHARLIE AP CO DEVOLUY 1:14.71 1:14.71 310.10
17 122 15/BEN FFS2349497 1992 MEIZEL DORIAN AP US ANCELLE 1:14.94 1:14.94 312.95
18 159 16/BEN FFS2615529 1993 SALLE ALEXIS AP PUY ST VINCE 1:14.99 1:14.99 313.57
19 178 17/BEN FFS2349447 1993 POUPAULT SYLVAIN AP SC ST LEGER 1:15.24 1:15.24 316.67
20 162 18/BEN FFS2319011 1993 BERTRAND JORIS AP CSH BRIANCON 1:15.27 1:15.27 317.04
21 133 19/BEN FFS2349382 1992 AILLOUD GREGOIRE AP ORC MERLETTE 1:15.71 1:15.71 322.49
22 115 20/BEN FFS2289081 1992 ARMAND HUGO AP GAP MERLETTE 1:15.75 1:15.75 322.98
23 143 21/BEN FFS2289385 1992 FELIX VALENTIN AP EC CHAMPSAUR 1:16.11 1:16.11 327.44
24 175 22/BEN FFS2349094 1992 PELLISIER QUENTIN AP ORC MERLETTE 1:16.28 1:16.28 329.54
25 69 3/POU FFS2613804 1994 GILARDINO CHARLY AP SC MONGENEVR 1:16.47 1:16.47 331.90
26 184 23/BEN FFS2602913 1993 MEYER WILLIAM AP EC CHAMPSAUR 1:16.72 1:16.72 334.99
27 119 24/BEN FFS2349000 1993 MEANO ALLAN AP CSH BRIANCON 1:16.77 1:16.77 335.61
28 16 4/POU FFS2602870 1994 RICOU IVO AP ORC MERLETTE 1:16.80 1:16.80 335.98
29 134 25/BEN FFS2319027 1993 MONNET NICOLAS AP SC QUEYRAS 1:16.92 1:16.92 337.47
30 19 5/POU FFS2604398 1994 GALAND ANTOINE AP GAP MERLETTE 1:16.93 1:16.93 337.59
31 53 6/POU FFS2601030 1994 HUBAUD MAXIME AP US ANCELLE 1:17.03 1:17.03 338.83
32 135 26/BEN FFS2289029 1992 IMBERT TITOUAN AP CS RISOUL 1:17.04 1:17.04 338.95
33 22 7/POU FFS2613808 1994 SAMOY MICKAEL AP SC MONGENEVR 1:17.16 1:17.16 340.44
34 126 27/BEN FFS2614549 1993 BERMOND FLORIAN AP GAP MERLETTE 1:17.17 1:17.17 340.56
35 70 8/POU FFS2349113 1994 SARRAZIN CYPRIEN AP US VEYNOISE 1:17.21 1:17.21 341.06
35 82 8/POU FFS2614968 1995 BARONNAT ROBIN AP ORC MERLETTE 1:17.21 1:17.21 341.06
37 118 28/BEN FFS2605767 1992 CRAISSE JEREMY AP SC REALLON 1:17.31 1:17.31 342.30
38 124 29/BEN FFS2349135 1993 ROLLAND ROMAIN AP GAP MERLETTE 1:17.41 1:17.41 343.54
38 130 29/BEN FFS2349141 1992 DELATTRE QUENTIN AP SC MONGENEVR 1:17.41 1:17.41 343.54
40 27 10/POU FFS2613803 1994 BERTON JEAN BAPTIST AP SC MONGENEVR 1:17.61 1:17.61 346.01
41 15 11/POU FFS2349485 1994 VINCENT MAXIME AP SC ST LEGER 1:17.81 1:17.81 348.49
42 111 31/BEN FFS2256402 1992 BOUVARD CLEMENT AP GAP MERLETTE 1:17.83 1:17.83 348.74
43 6 12/POU FFS2349371 1994 CAUDRELIER JULIEN AP SC QUEYRAS 1:17.97 1:17.97 350.47
44 20 13/POU FFS2600757 1994 CHAVANNE SIMON AP SC MONGENEVR 1:18.06 1:18.06 351.58
45 168 32/BEN FFS2603954 1993 MOUTARD JULIEN AP CSH BRIANCON 1:18.08 1:18.08 351.83
46 154 33/BEN FFS2349343 1993 CHAUD TIMOTE AP PUY ST VINCE 1:18.17 1:18.17 352.95
47 74 14/POU FFS2349482 1994 VANDEZANDE MATHIEU AP SC ST LEGER 1:18.27 1:18.27 354.18
48 98 15/POU FFS2349168 1994 JAUSSAUD SIMON AP SC ST LEGER 1:18.31 1:18.31 354.68
49 12 16/POU FFS2602871 1994 RICOU SANDER AP ORC MERLETTE 1:18.32 1:18.32 354.80
49 148 34/BEN FFS2319116 1993 GUIONNET VICTOR AP CS RISOUL 1:18.32 1:18.32 354.80
51 171 35/BEN FFS2621114 1993 CHAMPIOT REMY AP SERRE CHEVAL 1:18.40 1:18.40 355.79
52 96 17/POU FFS2603757 1995 GIRAUD PASCAL AP ORC MERLETTE 1:18.41 1:18.41 355.92
53 145 36/BEN FFS2319179 1993 SARRASIN ANTOINE AP SC REALLON 1:18.58 1:18.58 358.02
54 18 18/POU FFS2349110 1995 PRAYER MAEL AP CO DEVOLUY 1:18.71 1:18.71 359.63
55 190 37/BEN FFS2319115 1993 MAURICE JONATHAN AP CS RISOUL 1:18.76 1:18.76 360.25
56 117 38/BEN FFS2289080 1992 BROCHIER VICTOR AP SC ST LEGER 1:19.21 1:19.21 365.82
57 32 19/POU FFS2349123 1994 BRUN SEBASTIEN AP CS RISOUL 1:19.30 1:19.30 366.94
58 11 20/POU FFS2602977 1995 TALOTTA FLORIAN AP US ANCELLE 1:19.57 1:19.57 370.28
59 25 21/POU FFS2615525 1995 SIONNEAU PAUL AP SC QUEYRAS 1:19.72 1:19.72 372.14
60 42 22/POU FFS2602104 1995 D'ANDREA BAPTISTE AP CSH BRIANCON 1:20.01 1:20.01 375.73
61 2 23/POU FFS2603807 1995 JAUSSAUD CYRIL AP US ANCELLE 1:20.17 1:20.17 377.71
62 8 24/POU FFS2605049 1994 GALTIER ANTOINE AP SC QUEYRAS 1:20.20 1:20.20 378.08
63 164 39/BEN FFS2603957 1993 CHAUVIN CLEMENT AP GAP MERLETTE 1:20.23 1:20.23 378.45
64 78 25/POU FFS2613807 1994 FERRERO YOURI AP SC MONGENEVR 1:20.35 1:20.35 379.94
65 50 26/POU FFS2603156 1994 DEFLISQUE MARVIN AP ORC MERLETTE 1:20.36 1:20.36 380.06
66 48 27/POU FFS2604123 1994 DURAND GABRIEL AP CO DEVOLUY 1:20.47 1:20.47 381.43
66 186 40/BEN FFS2602909 1993 GIRAUD MAUDUIT LOIC AP ORC MERLETTE 1:20.47 1:20.47 381.43
68 131 41/BEN FFS2603960 1993 JUILLIET CORENTIN AP ORC MERLETTE 1:20.63 1:20.63 383.41
69 17 28/POU FFS2349114 1994 CELCE ADRIEN AP CO DEVOLUY 1:20.70 1:20.70 384.27
69 57 28/POU FFS2613811 1994 FORESTIER VALENTIN AP SC MONGENEVR 1:20.70 1:20.70 384.27
71 71 30/POU FFS2602103 1995 MEYER GUILLAUME AP CSH BRIANCON 1:20.84 1:20.84 386.01
72 36 31/POU FFS2613504 1994 MATHERON ETIENNE AP US ANCELLE 1:20.86 1:20.86 386.26
73 166 42/BEN FFS2319112 1993 COLLOMBON KIRVIN AP CS RISOUL 1:20.95 1:20.95 387.37
74 68 32/POU FFS2319098 1994 REMUSAN TOMY AP CO DEVOLUY 1:21.29 1:21.29 391.58
74 172 43/BEN FFS2265258 1992 ROSIER BASTIEN AP SC MONGENEVR 1:21.29 1:21.29 391.58
76 189 44/BEN FFS2601647 1993 RUTH SYLVAIN AP SC MONGENEVR 1:21.33 1:21.33 392.08
77 181 45/BEN FFS2615454 1992 BARTEL YOAN AP ORC MERLETTE 1:21.35 1:21.35 392.32
78 29 33/POU FFS2605463 1994 PELLEGRIN FLORIAN AP SC CHAILLOL 1:21.38 1:21.38 392.69
79 14 34/POU FFS2602123 1995 LACROIX VALENTIN AP CSH BRIANCON 1:21.54 1:21.54 394.68
80 63 35/POU FFS2602419 1995 BLANC DAMIEN AP CS RISOUL 1:21.85 1:21.85 398.51
81 10 36/POU FFS2602869 1994 PELISSIER FLORIAN AP ORC MERLETTE 1:22.03 1:22.03 400.74
82 114 46/BEN FFS2601643 1993 HEUZE SERVAN AP SC MONGENEVR 1:22.04 1:22.04 400.87
83 132 47/BEN FFS2319097 1993 SERRES QUENTIN AP CO DEVOLUY 1:22.14 1:22.14 402.11
84 136 48/BEN FFS2615355 1993 CHEVALLIER GUILLAUME AP CS RISOUL 1:22.25 1:22.25 403.47
85 77 37/POU FFS2603853 1994 MOUREN OLIVIER AP SC CHAILLOL 1:22.33 1:22.33 404.46
86 7 38/POU FFS2613809 1994 MACHET ANTOINE AP SC MONGENEVR 1:22.41 1:22.41 405.45
87 37 39/POU FFS2604075 1995 GALLERON ADRIEN AP SC ST LEGER 1:22.48 1:22.48 406.32
87 66 39/POU FFS2602423 1995 FOURNIER ANTHONY AP CS RISOUL 1:22.48 1:22.48 406.32
89 38 41/POU FFS2604800 1995 FORTOUL REMI AP SPORTIN VARS 1:22.63 1:22.63 408.17
90 160 49/BEN FFS2256415 1992 SALLES ALEXANDRE AP SPORTIN VARS 1:22.64 1:22.64 408.30
91 75 42/POU FFS2349379 1994 TOYE REMI AP SC QUEYRAS 1:22.88 1:22.88 411.27
92 89 43/POU FFS2604349 1995 SERRES DIMITRI AP CO DEVOLUY 1:23.24 1:23.24 415.73
93 187 50/BEN FFS2319177 1993 MARSEILLE REMI AP SC REALLON 1:23.29 1:23.29 416.35
94 40 44/POU FFS2349124 1994 GUERENDEL JOSSE AP CS RISOUL 1:23.42 1:23.42 417.95
94 88 44/POU FFS2618543 1995 RAYNAL SANTHOSH AP US ANCELLE 1:23.42 1:23.42 417.95
96 144 51/BEN FFS2349508 1992 MAHOU VALENTIN AP SC CHAILLOL 1:23.61 1:23.61 420.31
97 35 46/POU FFS2614405 1995 BLANC GRAS LUC AP GAP MERLETTE 1:23.63 1:23.63 420.56
98 94 47/POU FFS2602640 1995 BIANCHI BENOIT AP PUY ST VINCE 1:23.66 1:23.66 420.93
99 28 48/POU FFS2349167 1994 CHEVALIER FLORIAN AP SC ST LEGER 1:23.80 1:23.80 422.66
100 138 52/BEN FFS2617092 1993 CALAMITA FLORIAN AP CO DEVOLUY 1:23.86 1:23.86 423.40
101 47 49/POU FFS2349208 1995 NIEL THOMAS AP PUY ST VINCE 1:23.88 1:23.88 423.65
102 72 50/POU FFS2613075 1994 BERTRAND SYLVAIN AP GAP MERLETTE 1:23.99 1:23.99 425.01
103 45 51/POU FFS2622506 1994 MONNET DAVID AP SC QUEYRAS 1:24.03 1:24.03 425.51
104 62 52/POU FFS2613909 1995 FAURE VINCENT ROBIN AP CSH BRIANCON 1:24.18 1:24.18 427.37
105 51 53/POU FFS2349481 1994 NICOLAS GOEL AP SC ST LEGER 1:24.25 1:24.25 428.23
106 121 53/BEN FFS2289032 1992 BAYARD BORIS AP CS RISOUL 1:24.28 1:24.28 428.60
107 120 54/BEN FFS2349480 1992 CALLET FLORIAN AP SC ST LEGER 1:24.44 1:24.44 430.58
108 92 54/POU FFS2613900 1995 OULD'AMMAR CHARLY AP CSH BRIANCON 1:24.84 1:24.84 435.54
109 85 55/POU FFS2319095 1994 MATTERA MAXIME AP CO DEVOLUY 1:24.86 1:24.86 435.79
110 167 55/BEN FFS2617481 1993 FRAGNIERE FLORIAN AP US ANCELLE 1:25.45 1:25.45 443.09
111 23 56/POU FFS2617132 1995 MIGAULT MAXIME AP SC QUEYRAS 1:25.46 1:25.46 443.22
112 80 57/POU FFS2613908 1995 DELEUIL LOUIS AP CSH BRIANCON 1:25.48 1:25.48 443.46
113 76 58/POU FFS2613901 1995 OULD'AMMAR ROMAIN AP CSH BRIANCON 1:25.58 1:25.58 444.70
114 44 59/POU FFS2606509 1995 BERTHEREAU PIERRICK AP GAP MERLETTE 1:25.76 1:25.76 446.93
115 177 56/BEN FFS2289329 1993 VANDERWEYEN MARC AP GAP MERLETTE 1:25.83 1:25.83 447.80
116 84 60/POU FFS2617604 1995 GAUDIN DYLAN AP SC CEILLAC 1:25.96 1:25.96 449.41
117 39 61/POU FFS2605464 1994 LAGOUTTE JEREMY AP SC CHAILLOL 1:26.17 1:26.17 452.01
118 3 62/POU FFS2604351 1994 PATRAS CYRIL AP CO DEVOLUY 1:26.32 1:26.32 453.86
119 174 57/BEN FFS2603962 1993 PAPE MAXENCE AP GAP MERLETTE 1:26.43 1:26.43 455.23
120 59 63/POU FFS2603155 1995 CASTILLO JASON AP CS RISOUL 1:27.05 1:27.05 462.90
121 4 64/POU FFS2615493 1995 GUITARD GAULTIER AP SC QUEYRAS 1:27.29 1:27.29 465.88
122 150 58/BEN FFS2604448 1993 ROCHEDY MALTESE SELIM AP CO DEVOLUY 1:27.56 1:27.56 469.22
123 31 65/POU FFS2605912 1995 DUFAYARD VICTOR AP GAP MERLETTE 1:27.64 1:27.64 470.21
123 188 59/BEN FFS2349221 1993 FRANCESCHI KLAMM THOMAS AP SC REALLON 1:27.64 1:27.64 470.21
125 141 60/BEN FFS2319137 1992 PALMESE YOANN AP SPORTIN VARS 1:27.80 1:27.80 472.19
126 169 61/BEN FFS2601064 1993 GAILLARD JULES AP US ANCELLE 1:27.95 1:27.95 474.05
127 153 62/BEN FFS2349450 1993 RENAUD ANTHONY AP SC CHAILLOL 1:28.13 1:28.13 476.28
128 30 66/POU FFS2606067 1995 BAILLY CHARLY AP CS RISOUL 1:28.25 1:28.25 477.76
129 61 67/POU FFS2604363 1995 PELLISSIER LOIC AP US ANCELLE 1:28.28 1:28.28 478.13
130 64 68/POU FFS2319288 1995 ASTIER ELOI AP PUY ST VINCE 1:28.32 1:28.32 478.63
131 1 69/POU FFS2604361 1995 PHILIP GUILLAUME AP SC QUEYRAS 1:28.40 1:28.40 479.62
132 81 70/POU FFS2602900 1994 MARTIN TEISSERE BORIS AP ORC MERLETTE 1:28.66 1:28.66 482.84
133 91 71/POU FFS2614971 1995 BERTRAND PELLISSON THEO AP ORC MERLETTE 1:28.83 1:28.83 484.94
134 49 72/POU FFS2623223 1995 PROUX ANTOINE AP ORC MERLETTE 1:29.18 1:29.18 489.28
135 43 73/POU FFS2621509 1995 NORRINGTON ZAC AP SC MONGENEVR 1:29.55 1:29.55 493.86
136 165 63/BEN FFS2617857 1992 PLAZY STEPHANE AP US VEYNOISE 1:29.57 1:29.57 494.11
137 34 74/POU FFS2602996 1995 REGUERA PABLO AP SPORTIN VARS 1:29.58 1:29.58 494.23
138 180 64/BEN FFS2615530 1993 DAMAS JORDY AP PUY ST VINCE 1:29.63 1:29.63 494.85
139 79 75/POU FFS2602641 1995 GILBERT QUENTIN AP PUY ST VINCE 1:29.93 1:29.93 498.57
140 90 76/POU FFS2349446 1994 BLANC NANS AP SC CHAILLOL 1:29.95 1:29.95 498.81
141 83 77/POU FFS2605491 1995 MARTINEZ GUILLAUME AP SC ST LEGER 1:30.57 1:30.57 506.49
142 161 65/BEN FFS2621954 1992 QUEYRAS CHARLES EDOU AP SPORTIN VARS 1:30.81 1:30.81 509.46
143 73 78/POU FFS2616941 1995 VAUTHIER GUILLAUME AP SPORTIN VARS 1:30.89 1:30.89 510.45
144 46 79/POU FFS2619192 1995 DUSSERRE MARIN AP SC ST LEGER 1:31.34 1:31.34 516.02
145 55 80/POU FFS2602639 1995 CHAUD SAMMY AP PUY ST VINCE 1:32.49 1:32.49 530.26
146 52 81/POU FFS2603809 1994 EYRAUD ANTOINE AP US ANCELLE 1:32.72 1:32.72 533.11
147 58 82/POU FFS2622512 1995 ALLAIS JEREMY AP SC QUEYRAS 1:32.81 1:32.81 534.23
148 65 83/POU FFS2605911 1995 DROUILLARD GASPARD AP GAP MERLETTE 1:32.98 1:32.98 536.33
149 86 84/POU FFS2615528 1995 HUBERT ANTOINE AP PUY ST VINCE 1:34.57 1:34.57 556.02
150 183 66/BEN FFS2618750 1993 BOIZET BAPTISTE AP US VEYNOISE 1:35.47 1:35.47 567.16
151 54 85/POU FFS2621510 1995 LECOZ PAUL AP SC MONGENEVR 1:35.91 1:35.91 572.61
152 97 86/POU FFS2618284 1995 BELNAND ALEX AP SC CHAILLOL 1:41.14 1:41.14 637.37
Abandons
9 FFS2349213 1994 NORBERT ANTHONY AP SC REALLON
152 FFS2288915 1992 CASULA ROBERTO AP CSH BRIANCON
173 FFS2349088 1992 EYRAUD PIERRE LOUIS AP US ANCELLE
192 FFS2289031 1992 ROBIN KEVIN AP CS RISOUL
Non partants
5 FFS2602916 1995 SEGOND JEREMY AP CS RISOUL
13 FFS2623845 1995 PARA JONATHAN AP SC ST LEGER
21 FFS2602646 1995 MERCIER YVON AP PUY ST VINCE
41 FFS2602428 1995 VEZILIER ROBIN AP CS RISOUL
56 FFS2603016 1995 BLETTNER AXEL AP SPORTIN VARS
60 FFS2604335 1994 EYRAUD BASTIEN AP US ANCELLE
67 FFS2606074 1994 LEAUTHIER EDOUARD AP SC ST LEGER
87 FFS2289014 1994 PRAYER JORDAN AP CO DEVOLUY
93 FFS2624662 1994 CRET LORIS AP SC CHAILLOL
95 FFS2614208 1995 JEROME LUCAS AP GAP MERLETTE
112 FFS2349087 1992 DEFOSSE VICTOR AP US ANCELLE
123 FFS2617091 1993 MICHEL LOIC AP CO DEVOLUY
125 FFS2349090 1992 ESPITALLIER FABIEN JOSEP AP US ANCELLE
139 FFS2604073 1993 PORTIER GARRY AP SC ST LEGER
140 FFS2621046 1992 MONIOTTE ANTHONY AP SC REALLON
142 FFS2289253 1993 BESSY LUCAS AP PUY ST VINCE
147 FFS2289017 1993 SARRAZIN FLORENT AP CO DEVOLUY
156 FFS2615527 1993 DALMOLIN MATHIEU AP PUY ST VINCE
157 FFS2604136 1993 REY ALEXIS AP SERRE CHEVAL
158 FFS2289003 1992 BREMOND DORIAN AP SERRE CHEVAL
163 FFS2319113 1993 BOSSA ISMAEL AP CS RISOUL
170 FFS2349159 1993 BESSON JONAS AP SC ST LEGER
182 FFS2618507 1993 [V]MATHERON CONSTENTIN AP US VEYNOISE